createdAt,value
2023-04-11T00:00:32.073Z,0.00
2023-04-11T00:01:32.055Z,0.00
2023-04-11T00:02:32.158Z,0.00
2023-04-11T00:03:32.181Z,0.00
2023-04-11T00:04:32.130Z,0.00
2023-04-11T00:05:32.006Z,0.00
2023-04-11T00:06:31.988Z,0.00
2023-04-11T00:07:31.980Z,0.00
2023-04-11T00:08:31.958Z,0.00
2023-04-11T00:09:31.948Z,0.00
2023-04-11T00:10:31.931Z,0.00
2023-04-11T00:11:31.914Z,0.00
2023-04-11T00:12:31.901Z,0.00
2023-04-11T00:13:31.916Z,0.00
2023-04-11T00:14:31.879Z,0.00
2023-04-11T00:15:31.867Z,0.00
2023-04-11T00:16:31.894Z,0.00
2023-04-11T00:17:31.970Z,0.00
2023-04-11T00:18:31.875Z,0.00
2023-04-11T00:19:31.825Z,0.00
2023-04-11T00:20:31.801Z,0.00
2023-04-11T00:21:31.788Z,0.00
2023-04-11T00:22:31.770Z,0.00
2023-04-11T00:23:31.767Z,0.00
2023-04-11T00:24:31.742Z,0.00
2023-04-11T00:25:31.732Z,0.00
2023-04-11T00:26:31.712Z,0.00
2023-04-11T00:27:31.706Z,0.00
2023-04-11T00:28:31.695Z,0.00
2023-04-11T00:29:31.690Z,0.00
2023-04-11T00:30:31.661Z,0.00
2023-04-11T00:31:31.661Z,0.00
2023-04-11T00:32:31.641Z,0.00
2023-04-11T00:33:31.611Z,0.00
2023-04-11T00:34:31.608Z,0.00
2023-04-11T00:35:31.586Z,0.00
2023-04-11T00:36:31.632Z,0.00
2023-04-11T00:37:31.579Z,0.00
2023-04-11T00:38:31.545Z,0.00
2023-04-11T00:39:31.537Z,0.00
2023-04-11T00:40:31.520Z,0.00
2023-04-11T00:41:31.508Z,0.00
2023-04-11T00:42:31.496Z,0.00
2023-04-11T00:43:31.479Z,0.00
2023-04-11T00:44:31.466Z,0.00
2023-04-11T00:45:31.478Z,0.00
2023-04-11T00:46:31.434Z,0.00
2023-04-11T00:47:31.484Z,0.00
2023-04-11T00:48:31.411Z,0.00
2023-04-11T00:49:31.393Z,0.00
2023-04-11T00:50:31.387Z,0.00
2023-04-11T00:51:31.672Z,0.00
2023-04-11T00:52:31.358Z,0.00
2023-04-11T00:53:31.596Z,0.00
2023-04-11T00:54:31.340Z,0.00
2023-04-11T00:55:31.314Z,0.00
2023-04-11T00:56:31.298Z,0.00
2023-04-11T00:57:31.291Z,0.00
2023-04-11T00:58:31.275Z,0.00
2023-04-11T00:59:31.276Z,0.00
2023-04-11T01:00:31.250Z,0.00
2023-04-11T01:01:31.347Z,0.00
2023-04-11T01:02:31.323Z,0.00
2023-04-11T01:03:31.474Z,0.00
2023-04-11T01:04:31.209Z,0.00
2023-04-11T01:05:31.181Z,0.00
2023-04-11T01:06:31.162Z,0.00
2023-04-11T01:07:31.165Z,0.00
2023-04-11T01:08:31.141Z,0.00
2023-04-11T01:09:31.127Z,0.00
2023-04-11T01:10:31.115Z,0.00
2023-04-11T01:11:31.099Z,0.00
2023-04-11T01:12:31.091Z,0.00
2023-04-11T01:13:31.070Z,0.00
2023-04-11T01:14:31.060Z,0.00
2023-04-11T01:15:31.053Z,0.00
2023-04-11T01:16:31.044Z,0.00
2023-04-11T01:17:31.075Z,0.00
2023-04-11T01:18:31.029Z,0.00
2023-04-11T01:19:31.010Z,0.00
2023-04-11T01:20:30.982Z,0.00
2023-04-11T01:21:30.965Z,0.00
2023-04-11T01:22:30.950Z,0.00
2023-04-11T01:23:30.944Z,0.00
2023-04-11T01:24:30.941Z,0.00
2023-04-11T01:25:30.941Z,0.00
2023-04-11T01:26:30.898Z,0.00
2023-04-11T01:27:30.897Z,0.00
2023-04-11T01:28:30.875Z,0.00
2023-04-11T01:29:30.853Z,0.00
2023-04-11T01:30:31.017Z,0.00
2023-04-11T01:31:30.828Z,0.00
2023-04-11T01:32:30.933Z,0.00
2023-04-11T01:33:30.850Z,0.00
2023-04-11T01:34:30.784Z,0.00
2023-04-11T01:35:30.922Z,0.00
2023-04-11T01:36:30.762Z,0.00
2023-04-11T01:37:30.758Z,0.00
2023-04-11T01:38:30.771Z,0.00
2023-04-11T01:39:30.728Z,0.00
2023-04-11T01:40:30.703Z,0.00
2023-04-11T01:41:30.700Z,0.00
2023-04-11T01:42:30.684Z,0.00
2023-04-11T01:43:30.657Z,0.00
2023-04-11T01:44:30.649Z,0.00
2023-04-11T01:45:30.678Z,0.00
2023-04-11T01:46:30.650Z,0.00
2023-04-11T01:47:30.699Z,0.00
2023-04-11T01:48:30.666Z,0.00
2023-04-11T01:49:30.608Z,0.00
2023-04-11T01:50:30.567Z,0.00
2023-04-11T01:51:30.547Z,0.00
2023-04-11T01:52:30.532Z,0.00
2023-04-11T01:53:30.523Z,0.00
2023-04-11T01:54:30.510Z,0.00
2023-04-11T01:55:30.499Z,0.00
2023-04-11T01:56:30.482Z,0.00
2023-04-11T01:57:30.472Z,0.00
2023-04-11T01:58:30.468Z,0.00
2023-04-11T01:59:30.459Z,0.00
2023-04-11T02:00:30.431Z,0.00
2023-04-11T02:01:30.435Z,0.00
2023-04-11T02:02:30.511Z,0.00
2023-04-11T02:03:30.617Z,0.00
2023-04-11T02:04:30.426Z,0.00
2023-04-11T02:05:30.378Z,0.00
2023-04-11T02:06:30.362Z,0.00
2023-04-11T02:07:30.333Z,0.00
2023-04-11T02:08:30.323Z,0.00
2023-04-11T02:09:30.460Z,0.00
2023-04-11T02:10:30.286Z,0.00
2023-04-11T02:11:30.272Z,0.00
2023-04-11T02:12:30.285Z,0.00
2023-04-11T02:13:30.255Z,0.00
2023-04-11T02:14:30.243Z,0.00
2023-04-11T02:15:30.275Z,0.00
2023-04-11T02:16:30.299Z,0.00
2023-04-11T02:17:30.226Z,0.00
2023-04-11T02:18:30.185Z,0.00
2023-04-11T02:19:30.173Z,0.00
2023-04-11T02:20:30.156Z,0.00
2023-04-11T02:21:30.163Z,0.00
2023-04-11T02:22:30.131Z,0.00
2023-04-11T02:23:30.115Z,0.00
2023-04-11T02:24:30.119Z,0.00
2023-04-11T02:25:30.088Z,0.00
2023-04-11T02:26:30.073Z,0.00
2023-04-11T02:27:30.061Z,0.00
2023-04-11T02:28:30.048Z,0.00
2023-04-11T02:29:30.031Z,0.00
2023-04-11T02:30:30.024Z,0.00
2023-04-11T02:31:30.125Z,0.00
2023-04-11T02:32:30.010Z,0.00
2023-04-11T02:33:29.993Z,0.00
2023-04-11T02:34:29.977Z,0.00
2023-04-11T02:35:29.963Z,0.00
2023-04-11T02:36:29.941Z,0.00
2023-04-11T02:37:29.995Z,0.00
2023-04-11T02:38:29.916Z,0.00
2023-04-11T02:39:29.901Z,0.00
2023-04-11T02:40:29.889Z,0.00
2023-04-11T02:41:29.872Z,0.00
2023-04-11T02:42:29.873Z,0.00
2023-04-11T02:43:29.853Z,0.00
2023-04-11T02:44:29.830Z,0.00
2023-04-11T02:45:29.807Z,0.00
2023-04-11T02:46:29.858Z,0.00
2023-04-11T02:47:29.878Z,0.00
2023-04-11T02:48:29.774Z,0.00
2023-04-11T02:49:29.761Z,0.00
2023-04-11T02:50:29.746Z,0.00
2023-04-11T02:51:29.726Z,0.00
2023-04-11T02:52:29.726Z,0.00
2023-04-11T02:53:29.729Z,0.00
2023-04-11T02:54:29.692Z,0.00
2023-04-11T02:55:29.674Z,0.00
2023-04-11T02:56:29.663Z,0.00
2023-04-11T02:57:29.647Z,0.00
2023-04-11T02:58:29.636Z,0.00
2023-04-11T02:59:29.617Z,0.00
2023-04-11T03:00:29.611Z,0.00
2023-04-11T03:01:29.608Z,0.00
2023-04-11T03:02:29.725Z,0.00
2023-04-11T03:03:29.631Z,0.00
2023-04-11T03:04:29.642Z,0.00
2023-04-11T03:05:29.537Z,0.00
2023-04-11T03:06:29.533Z,0.00
2023-04-11T03:07:29.528Z,0.00
2023-04-11T03:08:29.500Z,0.00
2023-04-11T03:09:29.511Z,0.00
2023-04-11T03:10:29.475Z,0.00
2023-04-11T03:11:29.462Z,0.00
2023-04-11T03:12:29.446Z,0.00
2023-04-11T03:13:29.437Z,0.00
2023-04-11T03:14:29.418Z,0.00
2023-04-11T03:15:29.409Z,0.00
2023-04-11T03:16:29.415Z,0.00
2023-04-11T03:17:29.410Z,0.00
2023-04-11T03:18:29.360Z,0.00
2023-04-11T03:19:29.354Z,0.00
2023-04-11T03:20:29.339Z,0.00
2023-04-11T03:21:29.327Z,0.00
2023-04-11T03:22:29.315Z,0.00
2023-04-11T03:23:29.293Z,0.00
2023-04-11T03:24:29.284Z,0.00
2023-04-11T03:25:29.296Z,0.00
2023-04-11T03:26:29.262Z,0.00
2023-04-11T03:27:29.259Z,0.00
2023-04-11T03:28:29.257Z,0.00
2023-04-11T03:29:29.227Z,0.00
2023-04-11T03:30:29.200Z,0.00
2023-04-11T03:31:29.216Z,0.00
2023-04-11T03:32:29.281Z,0.00
2023-04-11T03:33:29.172Z,0.00
2023-04-11T03:34:29.167Z,0.00
2023-04-11T03:35:29.143Z,0.00
2023-04-11T03:36:29.126Z,0.00
2023-04-11T03:37:29.116Z,0.00
2023-04-11T03:38:29.101Z,0.00
2023-04-11T03:39:29.092Z,0.00
2023-04-11T03:40:29.071Z,0.00
2023-04-11T03:41:29.075Z,0.00
2023-04-11T03:42:29.042Z,0.00
2023-04-11T03:43:29.187Z,0.00
2023-04-11T03:44:29.016Z,0.00
2023-04-11T03:45:29.001Z,0.00
2023-04-11T03:46:29.058Z,0.00
2023-04-11T03:47:28.979Z,0.00
2023-04-11T03:48:28.967Z,0.00
2023-04-11T03:49:28.949Z,0.00
2023-04-11T03:50:28.946Z,0.00
2023-04-11T03:51:28.924Z,0.00
2023-04-11T03:52:28.913Z,0.00
2023-04-11T03:53:28.898Z,0.00
2023-04-11T03:54:28.883Z,0.00
2023-04-11T03:55:28.871Z,0.00
2023-04-11T03:56:28.855Z,0.00
2023-04-11T03:57:28.857Z,0.00
2023-04-11T03:58:28.818Z,0.00
2023-04-11T03:59:28.958Z,0.00
2023-04-11T04:00:28.795Z,0.00
2023-04-11T04:01:28.781Z,0.00
2023-04-11T04:02:28.873Z,0.00
2023-04-11T04:03:28.937Z,0.00
2023-04-11T04:04:28.888Z,0.00
2023-04-11T04:05:28.724Z,0.00
2023-04-11T04:06:28.811Z,0.00
2023-04-11T04:07:28.697Z,0.00
2023-04-11T04:08:28.687Z,0.00
2023-04-11T04:09:28.715Z,0.00
2023-04-11T04:10:28.660Z,0.00
2023-04-11T04:11:28.840Z,0.00
2023-04-11T04:12:28.643Z,0.00
2023-04-11T04:13:28.637Z,0.00
2023-04-11T04:14:28.637Z,0.00
2023-04-11T04:15:28.590Z,0.00
2023-04-11T04:16:28.801Z,0.00
2023-04-11T04:17:28.571Z,0.00
2023-04-11T04:18:28.548Z,0.00
2023-04-11T04:19:28.531Z,0.00
2023-04-11T04:20:28.520Z,0.00
2023-04-11T04:21:28.513Z,0.00
2023-04-11T04:22:28.498Z,0.00
2023-04-11T04:23:28.477Z,0.00
2023-04-11T04:24:28.469Z,0.00
2023-04-11T04:25:28.455Z,0.00
2023-04-11T04:26:28.440Z,0.00
2023-04-11T04:27:28.429Z,0.00
2023-04-11T04:28:28.412Z,0.00
2023-04-11T04:29:28.418Z,0.00
2023-04-11T04:30:28.389Z,0.00
2023-04-11T04:31:28.404Z,0.00
2023-04-11T04:32:28.366Z,0.00
2023-04-11T04:33:28.340Z,0.00
2023-04-11T04:34:28.328Z,0.00
2023-04-11T04:35:28.411Z,0.00
2023-04-11T04:36:28.301Z,0.00
2023-04-11T04:37:28.284Z,0.00
2023-04-11T04:38:28.279Z,0.00
2023-04-11T04:39:28.259Z,0.00
2023-04-11T04:40:28.252Z,0.00
2023-04-11T04:41:28.239Z,0.00
2023-04-11T04:42:28.221Z,0.00
2023-04-11T04:43:28.207Z,0.00
2023-04-11T04:44:28.204Z,0.00
2023-04-11T04:45:28.222Z,0.00
2023-04-11T04:46:28.180Z,0.00
2023-04-11T04:47:28.277Z,0.00
2023-04-11T04:48:28.142Z,0.00
2023-04-11T04:49:28.129Z,0.00
2023-04-11T04:50:28.121Z,0.00
2023-04-11T04:51:28.098Z,0.00
2023-04-11T04:52:28.084Z,5.62
2023-04-11T04:53:28.070Z,5.62
2023-04-11T04:54:28.087Z,5.62
2023-04-11T04:55:28.040Z,5.62
2023-04-11T04:56:28.093Z,5.62
2023-04-11T04:57:28.025Z,5.62
2023-04-11T04:58:28.019Z,11.25
2023-04-11T04:59:28.003Z,11.25
2023-04-11T05:00:28.003Z,11.25
2023-04-11T05:01:28.055Z,11.25
2023-04-11T05:02:28.235Z,11.25
2023-04-11T05:03:28.116Z,11.25
2023-04-11T05:04:28.151Z,11.25
2023-04-11T05:05:27.911Z,11.25
2023-04-11T05:06:27.895Z,11.25
2023-04-11T05:07:27.887Z,11.25
2023-04-11T05:08:27.870Z,11.25
2023-04-11T05:09:27.856Z,11.25
2023-04-11T05:10:27.841Z,11.25
2023-04-11T05:11:27.826Z,11.25
2023-04-11T05:12:27.817Z,11.25
2023-04-11T05:13:27.805Z,11.25
2023-04-11T05:14:27.787Z,11.25
2023-04-11T05:15:27.777Z,16.88
2023-04-11T05:16:27.791Z,16.88
2023-04-11T05:17:27.860Z,22.50
2023-04-11T05:18:27.731Z,22.50
2023-04-11T05:19:27.724Z,22.50
2023-04-11T05:20:27.708Z,22.50
2023-04-11T05:21:27.696Z,22.50
2023-04-11T05:22:27.679Z,22.50
2023-04-11T05:23:27.664Z,22.50
2023-04-11T05:24:27.647Z,22.50
2023-04-11T05:25:27.648Z,22.50
2023-04-11T05:26:27.639Z,28.12
2023-04-11T05:27:27.608Z,28.12
2023-04-11T05:28:27.591Z,28.12
2023-04-11T05:29:27.580Z,33.75
2023-04-11T05:30:27.563Z,33.75
2023-04-11T05:31:27.555Z,33.75
2023-04-11T05:32:27.635Z,33.75
2023-04-11T05:33:27.554Z,33.75
2023-04-11T05:34:27.760Z,33.75
2023-04-11T05:35:27.501Z,33.75
2023-04-11T05:36:27.484Z,33.75
2023-04-11T05:37:27.469Z,33.75
2023-04-11T05:38:27.496Z,33.75
2023-04-11T05:39:27.442Z,39.38
2023-04-11T05:40:27.425Z,39.38
2023-04-11T05:41:27.416Z,45.00
2023-04-11T05:42:27.396Z,45.00
2023-04-11T05:43:27.394Z,50.62
2023-04-11T05:44:27.381Z,56.25
2023-04-11T05:45:27.363Z,50.62
2023-04-11T05:46:27.394Z,50.62
2023-04-11T05:47:27.365Z,50.62
2023-04-11T05:48:27.322Z,50.62
2023-04-11T05:49:27.738Z,50.62
2023-04-11T05:50:27.295Z,50.62
2023-04-11T05:51:27.279Z,56.25
2023-04-11T05:52:27.271Z,56.25
2023-04-11T05:53:27.250Z,56.25
2023-04-11T05:54:27.237Z,56.25
2023-04-11T05:55:27.221Z,56.25
2023-04-11T05:56:27.209Z,56.25
2023-04-11T05:57:27.200Z,56.25
2023-04-11T05:58:27.184Z,61.88
2023-04-11T05:59:28.818Z,61.88
2023-04-11T06:00:27.149Z,67.50
2023-04-11T06:01:27.383Z,67.50
2023-04-11T06:02:27.261Z,67.50
2023-04-11T06:03:27.346Z,61.88
2023-04-11T06:04:27.255Z,56.25
2023-04-11T06:05:27.100Z,56.25
2023-04-11T06:06:27.070Z,50.62
2023-04-11T06:07:27.256Z,50.62
2023-04-11T06:08:27.039Z,56.25
2023-04-11T06:09:27.031Z,56.25
2023-04-11T06:10:27.173Z,50.62
2023-04-11T06:11:26.996Z,50.62
2023-04-11T06:12:26.989Z,50.62
2023-04-11T06:13:26.977Z,50.62
2023-04-11T06:14:26.962Z,56.25
2023-04-11T06:15:26.969Z,56.25
2023-04-11T06:16:27.051Z,61.88
2023-04-11T06:17:26.954Z,67.50
2023-04-11T06:18:26.914Z,73.12
2023-04-11T06:19:26.898Z,73.12
2023-04-11T06:20:26.891Z,73.12
2023-04-11T06:21:26.890Z,73.12
2023-04-11T06:22:26.857Z,73.12
2023-04-11T06:23:26.863Z,73.12
2023-04-11T06:24:26.822Z,78.75
2023-04-11T06:25:26.812Z,90.00
2023-04-11T06:26:26.802Z,90.00
2023-04-11T06:27:26.790Z,84.38
2023-04-11T06:28:26.772Z,78.75
2023-04-11T06:29:26.761Z,84.38
2023-04-11T06:30:26.753Z,90.00
2023-04-11T06:31:26.804Z,95.62
2023-04-11T06:32:26.744Z,95.62
2023-04-11T06:33:26.708Z,95.62
2023-04-11T06:34:26.701Z,101.25
2023-04-11T06:35:26.677Z,106.88
2023-04-11T06:36:26.664Z,95.62
2023-04-11T06:37:26.665Z,84.38
2023-04-11T06:38:26.634Z,84.38
2023-04-11T06:39:26.619Z,84.38
2023-04-11T06:40:26.624Z,90.00
2023-04-11T06:41:26.616Z,84.38
2023-04-11T06:42:26.582Z,84.38
2023-04-11T06:43:26.570Z,90.00
2023-04-11T06:44:26.724Z,95.62
2023-04-11T06:45:26.540Z,101.25
2023-04-11T06:46:26.580Z,106.88
2023-04-11T06:47:26.543Z,106.88
2023-04-11T06:48:26.493Z,112.50
2023-04-11T06:49:26.498Z,118.12
2023-04-11T06:50:26.576Z,112.50
2023-04-11T06:51:26.457Z,123.75
2023-04-11T06:52:28.153Z,135.00
2023-04-11T06:53:26.454Z,140.62
2023-04-11T06:54:26.417Z,135.00
2023-04-11T06:55:26.405Z,123.75
2023-04-11T06:56:26.394Z,118.12
2023-04-11T06:57:26.627Z,112.50
2023-04-11T06:58:26.375Z,118.12
2023-04-11T06:59:27.470Z,123.75
2023-04-11T07:00:26.334Z,146.25
2023-04-11T07:01:26.484Z,185.62
2023-04-11T07:02:26.543Z,225.00
2023-04-11T07:03:26.412Z,258.75
2023-04-11T07:04:26.444Z,270.00
2023-04-11T07:05:26.267Z,275.62
2023-04-11T07:06:26.450Z,270.00
2023-04-11T07:07:26.239Z,258.75
2023-04-11T07:08:26.233Z,258.75
2023-04-11T07:09:26.234Z,275.62
2023-04-11T07:10:26.208Z,270.00
2023-04-11T07:11:26.184Z,270.00
2023-04-11T07:12:26.175Z,281.25
2023-04-11T07:13:26.153Z,286.88
2023-04-11T07:14:26.152Z,292.50
2023-04-11T07:15:26.127Z,303.75
2023-04-11T07:16:26.161Z,315.00
2023-04-11T07:17:26.123Z,309.38
2023-04-11T07:18:26.092Z,309.38
2023-04-11T07:19:26.075Z,320.62
2023-04-11T07:20:26.070Z,331.88
2023-04-11T07:21:26.050Z,326.25
2023-04-11T07:22:26.049Z,315.00
2023-04-11T07:23:26.025Z,292.50
2023-04-11T07:24:26.018Z,264.38
2023-04-11T07:25:26.021Z,230.62
2023-04-11T07:26:25.980Z,213.75
2023-04-11T07:27:25.962Z,247.50
2023-04-11T07:28:25.957Z,286.88
2023-04-11T07:29:25.933Z,309.38
2023-04-11T07:30:25.926Z,331.88
2023-04-11T07:31:25.995Z,337.50
2023-04-11T07:32:25.943Z,354.38
2023-04-11T07:33:25.900Z,371.25
2023-04-11T07:34:25.874Z,382.50
2023-04-11T07:35:26.062Z,393.75
2023-04-11T07:36:25.850Z,421.88
2023-04-11T07:37:25.833Z,416.25
2023-04-11T07:38:25.814Z,371.25
2023-04-11T07:39:25.803Z,348.75
2023-04-11T07:40:25.786Z,360.00
2023-04-11T07:41:25.894Z,371.25
2023-04-11T07:42:25.774Z,365.62
2023-04-11T07:43:25.753Z,399.38
2023-04-11T07:44:27.237Z,410.62
2023-04-11T07:45:25.781Z,393.75
2023-04-11T07:46:25.711Z,348.75
2023-04-11T07:47:25.721Z,343.12
2023-04-11T07:48:25.680Z,376.88
2023-04-11T07:49:25.659Z,421.88
2023-04-11T07:50:25.643Z,489.38
2023-04-11T07:51:25.636Z,556.88
2023-04-11T07:52:25.622Z,511.88
2023-04-11T07:53:25.609Z,472.50
2023-04-11T07:54:25.601Z,506.25
2023-04-11T07:55:25.587Z,562.50
2023-04-11T07:56:25.572Z,500.62
2023-04-11T07:57:25.609Z,579.38
2023-04-11T07:58:25.553Z,686.25
2023-04-11T07:59:25.529Z,663.75
2023-04-11T08:00:25.654Z,540.00
2023-04-11T08:01:25.513Z,478.12
2023-04-11T08:02:25.628Z,433.12
2023-04-11T08:03:25.756Z,360.00
2023-04-11T08:04:25.639Z,309.38
2023-04-11T08:05:25.571Z,337.50
2023-04-11T08:06:25.425Z,388.12
2023-04-11T08:07:25.418Z,444.38
2023-04-11T08:08:25.404Z,433.12
2023-04-11T08:09:25.388Z,410.62
2023-04-11T08:10:25.388Z,298.12
2023-04-11T08:11:25.366Z,286.88
2023-04-11T08:12:25.349Z,298.12
2023-04-11T08:13:25.365Z,253.12
2023-04-11T08:14:25.326Z,253.12
2023-04-11T08:15:25.316Z,253.12
2023-04-11T08:16:25.375Z,219.38
2023-04-11T08:17:28.665Z,208.12
2023-04-11T08:18:25.328Z,225.00
2023-04-11T08:19:25.253Z,253.12
2023-04-11T08:20:25.311Z,253.12
2023-04-11T08:21:25.262Z,219.38
2023-04-11T08:22:25.213Z,219.38
2023-04-11T08:23:25.202Z,219.38
2023-04-11T08:24:25.192Z,219.38
2023-04-11T08:25:25.194Z,236.25
2023-04-11T08:26:25.170Z,208.12
2023-04-11T08:27:25.149Z,185.62
2023-04-11T08:28:25.184Z,163.12
2023-04-11T08:29:25.145Z,163.12
2023-04-11T08:30:25.123Z,196.88
2023-04-11T08:31:25.183Z,253.12
2023-04-11T08:32:25.108Z,292.50
2023-04-11T08:33:25.063Z,360.00
2023-04-11T08:34:25.246Z,388.12
2023-04-11T08:35:25.038Z,331.88
2023-04-11T08:36:25.032Z,337.50
2023-04-11T08:37:25.062Z,315.00
2023-04-11T08:38:25.006Z,320.62
2023-04-11T08:39:24.990Z,298.12
2023-04-11T08:40:27.023Z,292.50
2023-04-11T08:41:24.965Z,337.50
2023-04-11T08:42:24.945Z,388.12
2023-04-11T08:43:24.962Z,461.25
2023-04-11T08:44:24.911Z,495.00
2023-04-11T08:45:24.923Z,590.62
2023-04-11T08:46:24.935Z,680.62
2023-04-11T08:47:24.893Z,731.25
2023-04-11T08:48:24.864Z,708.75
2023-04-11T08:49:24.862Z,793.12
2023-04-11T08:50:25.673Z,776.25
2023-04-11T08:51:24.823Z,804.38
2023-04-11T08:52:24.812Z,1316.25
2023-04-11T08:53:24.837Z,990.00
2023-04-11T08:54:24.776Z,815.62
2023-04-11T08:55:24.762Z,1170.00
2023-04-11T08:56:24.765Z,1063.12
2023-04-11T08:57:24.735Z,708.75
2023-04-11T08:58:24.732Z,646.88
2023-04-11T08:59:24.707Z,630.00
2023-04-11T09:00:25.046Z,731.25
2023-04-11T09:01:24.810Z,1074.38
2023-04-11T09:02:24.738Z,500.62
2023-04-11T09:03:24.752Z,511.88
2023-04-11T09:04:24.700Z,545.62
2023-04-11T09:05:24.626Z,658.12
2023-04-11T09:06:24.616Z,1141.88
2023-04-11T09:07:24.606Z,1575.00
2023-04-11T09:08:24.581Z,1299.38
2023-04-11T09:09:24.572Z,1248.75
2023-04-11T09:10:24.559Z,1811.25
2023-04-11T09:11:24.553Z,922.50
2023-04-11T09:12:24.832Z,1186.88
2023-04-11T09:13:24.526Z,686.25
2023-04-11T09:14:24.517Z,759.38
2023-04-11T09:15:24.491Z,720.00
2023-04-11T09:16:24.526Z,798.75
2023-04-11T09:17:24.514Z,1794.38
2023-04-11T09:18:24.451Z,843.75
2023-04-11T09:19:24.438Z,1670.62
2023-04-11T09:20:24.428Z,1186.88
2023-04-11T09:21:24.410Z,1822.50
2023-04-11T09:22:24.398Z,973.12
2023-04-11T09:23:26.095Z,1074.38
2023-04-11T09:24:24.379Z,1102.50
2023-04-11T09:25:24.422Z,720.00
2023-04-11T09:26:24.353Z,703.12
2023-04-11T09:27:24.346Z,826.88
2023-04-11T09:28:24.333Z,1226.25
2023-04-11T09:29:24.315Z,1310.62
2023-04-11T09:30:24.357Z,1282.50
2023-04-11T09:31:24.312Z,1158.75
2023-04-11T09:32:24.310Z,961.88
2023-04-11T09:33:24.305Z,1288.12
2023-04-11T09:34:24.243Z,1417.50
2023-04-11T09:35:24.232Z,1333.12
2023-04-11T09:36:24.203Z,1395.00
2023-04-11T09:37:24.196Z,1288.12
2023-04-11T09:38:24.179Z,1299.38
2023-04-11T09:39:24.161Z,1310.62
2023-04-11T09:40:24.151Z,950.62
2023-04-11T09:41:24.138Z,1198.12
2023-04-11T09:42:24.137Z,720.00
2023-04-11T09:43:24.116Z,753.75
2023-04-11T09:44:24.300Z,675.00
2023-04-11T09:45:24.090Z,663.75
2023-04-11T09:46:24.086Z,703.12
2023-04-11T09:47:24.080Z,703.12
2023-04-11T09:48:32.009Z,624.38
2023-04-11T09:49:25.078Z,635.62
2023-04-11T09:50:24.019Z,731.25
2023-04-11T09:52:23.991Z,798.75
2023-04-11T09:53:23.978Z,810.00
2023-04-11T09:54:23.969Z,697.50
2023-04-11T09:55:23.953Z,596.25
2023-04-11T09:56:23.950Z,562.50
2023-04-11T09:57:23.925Z,556.88
2023-04-11T09:58:23.904Z,506.25
2023-04-11T09:59:23.888Z,416.25
2023-04-11T10:00:23.878Z,399.38
2023-04-11T10:01:23.895Z,551.25
2023-04-11T10:02:23.940Z,613.12
2023-04-11T10:03:23.984Z,680.62
2023-04-11T10:04:23.847Z,523.12
2023-04-11T10:05:23.841Z,405.00
2023-04-11T10:06:24.055Z,315.00
2023-04-11T10:07:23.801Z,264.38
2023-04-11T10:08:23.774Z,236.25
2023-04-11T10:09:23.756Z,208.12
2023-04-11T10:10:23.753Z,191.25
2023-04-11T10:11:24.431Z,196.88
2023-04-11T10:12:23.712Z,230.62
2023-04-11T10:13:23.700Z,303.75
2023-04-11T10:14:23.687Z,360.00
2023-04-11T10:15:23.675Z,472.50
2023-04-11T10:16:23.851Z,669.38
2023-04-11T10:17:24.588Z,860.62
2023-04-11T10:18:23.907Z,1001.25
2023-04-11T10:19:23.779Z,1023.75
2023-04-11T10:20:23.636Z,1046.25
2023-04-11T10:21:23.812Z,1029.38
2023-04-11T10:22:23.581Z,922.50
2023-04-11T10:23:23.625Z,866.25
2023-04-11T10:24:23.744Z,810.00
2023-04-11T10:25:24.053Z,922.50
2023-04-11T10:26:23.702Z,1226.25
2023-04-11T10:27:23.612Z,1344.38
2023-04-11T10:28:23.545Z,1051.88
2023-04-11T10:29:23.527Z,1018.12
2023-04-11T10:30:23.465Z,1006.88
2023-04-11T10:31:23.556Z,1001.25
2023-04-11T10:32:23.550Z,1040.62
2023-04-11T10:33:23.433Z,1130.62
2023-04-11T10:34:23.414Z,1181.25
2023-04-11T10:35:23.415Z,1248.75
2023-04-11T10:36:23.695Z,1215.00
2023-04-11T10:37:23.542Z,939.38
2023-04-11T10:38:23.605Z,984.38
2023-04-11T10:39:23.554Z,1029.38
2023-04-11T10:40:23.337Z,1018.12
2023-04-11T10:41:23.373Z,1653.75
2023-04-11T10:42:23.616Z,1704.38
2023-04-11T10:43:23.596Z,922.50
2023-04-11T10:44:23.301Z,804.38
2023-04-11T10:45:23.266Z,1411.88
2023-04-11T10:46:23.434Z,1400.62
2023-04-11T10:47:23.275Z,1001.25
2023-04-11T10:48:23.234Z,1046.25
2023-04-11T10:49:23.218Z,1158.75
2023-04-11T10:50:23.346Z,1260.00
2023-04-11T10:51:23.190Z,1271.25
2023-04-11T10:52:23.287Z,1271.25
2023-04-11T10:53:23.210Z,933.75
2023-04-11T10:54:23.522Z,1215.00
2023-04-11T10:55:23.166Z,1271.25
2023-04-11T10:56:23.199Z,1288.12
2023-04-11T10:57:23.373Z,1344.38
2023-04-11T10:58:23.088Z,1361.25
2023-04-11T10:59:23.078Z,1175.62
2023-04-11T11:00:23.066Z,1046.25
2023-04-11T11:01:32.330Z,838.12
2023-04-11T11:02:24.137Z,714.38
2023-04-11T11:03:23.151Z,680.62
2023-04-11T11:04:23.164Z,731.25
2023-04-11T11:05:22.993Z,810.00
2023-04-11T11:06:22.977Z,843.75
2023-04-11T11:07:22.972Z,1051.88
2023-04-11T11:08:23.310Z,973.12
2023-04-11T11:09:22.958Z,1355.62
2023-04-11T11:10:22.918Z,1023.75
2023-04-11T11:11:22.914Z,798.75
2023-04-11T11:12:22.900Z,573.75
2023-04-11T11:13:22.884Z,500.62
2023-04-11T11:14:22.872Z,551.25
2023-04-11T11:15:22.850Z,736.88
2023-04-11T11:16:22.881Z,1243.12
2023-04-11T11:17:22.869Z,826.88
2023-04-11T11:18:22.811Z,798.75
2023-04-11T11:19:22.840Z,1743.75
2023-04-11T11:20:22.785Z,1614.38
2023-04-11T11:21:27.378Z,1726.88
2023-04-11T11:22:22.759Z,1186.88
2023-04-11T11:23:22.740Z,871.88
2023-04-11T11:24:22.734Z,1608.75
2023-04-11T11:25:22.988Z,1811.25
2023-04-11T11:26:22.838Z,1951.88
2023-04-11T11:27:23.012Z,1867.50
2023-04-11T11:28:22.688Z,945.00
2023-04-11T11:29:22.667Z,1181.25
2023-04-11T11:30:22.648Z,1113.75
2023-04-11T11:31:22.680Z,1254.38
2023-04-11T11:32:22.647Z,742.50
2023-04-11T11:33:22.633Z,613.12
2023-04-11T11:34:24.248Z,585.00
2023-04-11T11:35:22.584Z,607.50
2023-04-11T11:36:22.729Z,630.00
2023-04-11T11:37:22.703Z,731.25
2023-04-11T11:38:22.648Z,1597.50
2023-04-11T11:39:23.345Z,1676.25
2023-04-11T11:40:22.515Z,978.75
2023-04-11T11:41:22.584Z,832.50
2023-04-11T11:42:22.550Z,838.12
2023-04-11T11:43:22.533Z,877.50
2023-04-11T11:44:22.534Z,1530.00
2023-04-11T11:45:22.727Z,1513.12
2023-04-11T11:46:22.805Z,1411.88
2023-04-11T11:47:22.452Z,1468.12
2023-04-11T11:48:22.415Z,1271.25
2023-04-11T11:49:22.397Z,928.12
2023-04-11T11:50:22.394Z,888.75
2023-04-11T11:51:22.379Z,877.50
2023-04-11T11:52:22.556Z,1153.12
2023-04-11T11:53:22.344Z,1147.50
2023-04-11T11:54:22.332Z,1192.50
2023-04-11T11:55:22.378Z,1265.62
2023-04-11T11:56:22.298Z,1276.88
2023-04-11T11:57:22.309Z,1288.12
2023-04-11T11:58:22.270Z,1192.50
2023-04-11T11:59:22.262Z,1198.12
2023-04-11T12:00:22.257Z,1136.25
2023-04-11T12:01:22.240Z,1198.12
2023-04-11T12:02:22.259Z,1276.88
2023-04-11T12:03:22.364Z,1276.88
2023-04-11T12:04:22.266Z,1237.50
2023-04-11T12:05:22.217Z,1310.62
2023-04-11T12:06:22.169Z,1406.25
2023-04-11T12:07:22.160Z,1490.62
2023-04-11T12:08:22.154Z,1608.75
2023-04-11T12:09:22.127Z,1636.88
2023-04-11T12:10:22.201Z,1575.00
2023-04-11T12:11:22.196Z,1698.75
2023-04-11T12:12:22.084Z,1524.38
2023-04-11T12:13:22.101Z,1800.00
2023-04-11T12:14:22.059Z,1625.62
2023-04-11T12:15:22.062Z,1507.50
2023-04-11T12:16:22.051Z,1406.25
2023-04-11T12:17:22.040Z,1366.88
2023-04-11T12:18:21.994Z,1524.38
2023-04-11T12:19:21.995Z,1501.88
2023-04-11T12:20:21.975Z,1378.12
2023-04-11T12:21:21.980Z,1400.62
2023-04-11T12:22:21.952Z,1456.88
2023-04-11T12:23:21.938Z,1462.50
2023-04-11T12:24:21.923Z,1738.12
2023-04-11T12:25:21.915Z,1845.00
2023-04-11T12:26:21.925Z,1805.62
2023-04-11T12:27:21.896Z,1586.25
2023-04-11T12:28:21.874Z,1417.50
2023-04-11T12:29:21.881Z,1417.50
2023-04-11T12:30:21.849Z,1440.00
2023-04-11T12:31:22.431Z,922.50
2023-04-11T12:32:21.850Z,894.38
2023-04-11T12:33:21.805Z,849.38
2023-04-11T12:34:22.432Z,883.12
2023-04-11T12:35:21.783Z,1389.38
2023-04-11T12:36:22.266Z,1355.62
2023-04-11T12:37:21.752Z,1237.50
2023-04-11T12:38:21.736Z,1383.75
2023-04-11T12:39:21.718Z,781.88
2023-04-11T12:40:21.867Z,680.62
2023-04-11T12:41:32.297Z,663.75
2023-04-11T12:42:26.528Z,635.62
2023-04-11T12:43:21.689Z,613.12
2023-04-11T12:44:21.659Z,781.88
2023-04-11T12:45:21.935Z,1012.50
2023-04-11T12:46:21.682Z,781.88
2023-04-11T12:47:21.685Z,641.25